Arma, Kansas
Current Conditions -  °F | °C
As of 10:55 PM on Saturday 22 Nov 2014 (Local Time) from KPTS Reporting Station
Clear Clear  
Wind Chill: 11°   Ceiling: Unl
Heat Index: 11°   Visibility: 10mi
Dew Point: 11°   Wind: 8mph
Humidity: 100%   Direction: 160°SSE
Pressure: 29.72"   Gusts: NA
Location:  37.54°N, 94.7°W
Report Text: KPTS 230455Z AUTO 16007KT 10SM CLR 11/11 A2972 RMK AO2 T01080109
Loading
Personal Weather Stations






























Interactive Weather Map New forecast layout! Learn more

10-Day Weather Forecast

Advertisements
Track Severe Weather on mobile